sensor_id;sensor_type;location;lat;lon;timestamp;P1;durP1;ratioP1;P2;durP2;ratioP2
13568;SDS011;6856;51.460;7.158;2023-02-15T00:00:40;10.70;;;9.23;;
13568;SDS011;6856;51.460;7.158;2023-02-15T00:03:15;11.27;;;9.23;;
13568;SDS011;6856;51.460;7.158;2023-02-15T00:05:50;11.47;;;9.17;;
13568;SDS011;6856;51.460;7.158;2023-02-15T00:08:26;12.43;;;10.17;;
13568;SDS011;6856;51.460;7.158;2023-02-15T00:11:04;14.13;;;10.47;;
13568;SDS011;6856;51.460;7.158;2023-02-15T00:13:40;13.37;;;10.17;;
13568;SDS011;6856;51.460;7.158;2023-02-15T00:16:15;12.93;;;10.70;;
13568;SDS011;6856;51.460;7.158;2023-02-15T00:18:51;12.30;;;9.93;;
13568;SDS011;6856;51.460;7.158;2023-02-15T00:21:25;11.67;;;10.30;;
13568;SDS011;6856;51.460;7.158;2023-02-15T00:24:00;10.53;;;8.90;;
13568;SDS011;6856;51.460;7.158;2023-02-15T00:26:37;10.77;;;8.70;;
13568;SDS011;6856;51.460;7.158;2023-02-15T00:29:12;11.17;;;8.73;;
13568;SDS011;6856;51.460;7.158;2023-02-15T00:31:50;12.27;;;9.33;;
13568;SDS011;6856;51.460;7.158;2023-02-15T00:34:25;14.13;;;10.27;;
13568;SDS011;6856;51.460;7.158;2023-02-15T00:37:00;12.20;;;9.40;;
13568;SDS011;6856;51.460;7.158;2023-02-15T00:39:36;12.90;;;9.83;;
13568;SDS011;6856;51.460;7.158;2023-02-15T00:42:10;12.60;;;9.67;;
13568;SDS011;6856;51.460;7.158;2023-02-15T00:44:44;14.07;;;10.97;;
13568;SDS011;6856;51.460;7.158;2023-02-15T00:47:19;12.40;;;11.07;;
13568;SDS011;6856;51.460;7.158;2023-02-15T00:49:53;12.93;;;10.20;;
13568;SDS011;6856;51.460;7.158;2023-02-15T00:52:27;14.13;;;10.17;;
13568;SDS011;6856;51.460;7.158;2023-02-15T00:55:03;13.47;;;10.70;;
13568;SDS011;6856;51.460;7.158;2023-02-15T00:57:38;13.07;;;10.77;;
13568;SDS011;6856;51.460;7.158;2023-02-15T01:02:48;13.67;;;11.57;;
13568;SDS011;6856;51.460;7.158;2023-02-15T01:05:23;15.07;;;11.27;;
13568;SDS011;6856;51.460;7.158;2023-02-15T01:07:57;14.07;;;11.03;;
13568;SDS011;6856;51.460;7.158;2023-02-15T01:10:34;12.93;;;9.87;;
13568;SDS011;6856;51.460;7.158;2023-02-15T01:13:08;13.07;;;10.47;;
13568;SDS011;6856;51.460;7.158;2023-02-15T01:15:43;11.87;;;9.37;;
13568;SDS011;6856;51.460;7.158;2023-02-15T01:18:18;13.33;;;10.77;;
13568;SDS011;6856;51.460;7.158;2023-02-15T01:20:55;13.53;;;10.00;;
13568;SDS011;6856;51.460;7.158;2023-02-15T01:23:32;11.17;;;9.57;;
13568;SDS011;6856;51.460;7.158;2023-02-15T01:26:09;12.43;;;9.93;;
13568;SDS011;6856;51.460;7.158;2023-02-15T01:28:43;11.47;;;9.33;;
13568;SDS011;6856;51.460;7.158;2023-02-15T01:31:19;10.80;;;8.93;;
13568;SDS011;6856;51.460;7.158;2023-02-15T01:33:54;12.20;;;9.53;;
13568;SDS011;6856;51.460;7.158;2023-02-15T01:36:27;11.37;;;8.80;;
13568;SDS011;6856;51.460;7.158;2023-02-15T01:39:02;11.83;;;9.50;;
13568;SDS011;6856;51.460;7.158;2023-02-15T01:41:38;12.40;;;9.70;;
13568;SDS011;6856;51.460;7.158;2023-02-15T01:47:22;12.63;;;9.70;;
13568;SDS011;6856;51.460;7.158;2023-02-15T01:50:07;10.47;;;8.67;;
13568;SDS011;6856;51.460;7.158;2023-02-15T01:52:47;14.10;;;10.30;;
13568;SDS011;6856;51.460;7.158;2023-02-15T01:55:29;13.23;;;9.97;;
13568;SDS011;6856;51.460;7.158;2023-02-15T01:58:09;10.63;;;8.67;;
13568;SDS011;6856;51.460;7.158;2023-02-15T02:00:44;12.83;;;9.77;;
13568;SDS011;6856;51.460;7.158;2023-02-15T02:03:19;11.67;;;9.57;;
13568;SDS011;6856;51.460;7.158;2023-02-15T02:06:08;12.00;;;9.63;;
13568;SDS011;6856;51.460;7.158;2023-02-15T02:08:45;11.53;;;9.30;;
13568;SDS011;6856;51.460;7.158;2023-02-15T02:11:19;11.27;;;9.27;;
13568;SDS011;6856;51.460;7.158;2023-02-15T02:13:55;13.60;;;10.53;;
13568;SDS011;6856;51.460;7.158;2023-02-15T02:16:32;14.00;;;9.90;;
13568;SDS011;6856;51.460;7.158;2023-02-15T02:19:31;12.37;;;8.63;;
13568;SDS011;6856;51.460;7.158;2023-02-15T02:22:57;11.37;;;9.23;;
13568;SDS011;6856;51.460;7.158;2023-02-15T02:26:06;14.93;;;10.13;;
13568;SDS011;6856;51.460;7.158;2023-02-15T02:29:50;11.67;;;8.83;;
13568;SDS011;6856;51.460;7.158;2023-02-15T02:36:12;12.73;;;9.90;;
13568;SDS011;6856;51.460;7.158;2023-02-15T02:39:04;11.63;;;9.50;;
13568;SDS011;6856;51.460;7.158;2023-02-15T02:41:54;12.20;;;9.67;;
13568;SDS011;6856;51.460;7.158;2023-02-15T02:44:35;12.43;;;9.30;;
13568;SDS011;6856;51.460;7.158;2023-02-15T02:47:18;12.77;;;10.03;;
13568;SDS011;6856;51.460;7.158;2023-02-15T02:50:00;12.57;;;9.73;;
13568;SDS011;6856;51.460;7.158;2023-02-15T02:52:38;14.13;;;10.73;;
13568;SDS011;6856;51.460;7.158;2023-02-15T02:55:17;13.30;;;9.93;;
13568;SDS011;6856;51.460;7.158;2023-02-15T02:58:02;11.60;;;9.87;;
13568;SDS011;6856;51.460;7.158;2023-02-15T03:00:43;11.43;;;9.60;;
13568;SDS011;6856;51.460;7.158;2023-02-15T03:03:24;12.53;;;9.93;;
13568;SDS011;6856;51.460;7.158;2023-02-15T03:06:07;11.50;;;9.37;;
13568;SDS011;6856;51.460;7.158;2023-02-15T03:08:50;11.97;;;9.33;;
13568;SDS011;6856;51.460;7.158;2023-02-15T03:11:32;13.00;;;9.57;;
13568;SDS011;6856;51.460;7.158;2023-02-15T03:14:07;10.37;;;8.27;;
13568;SDS011;6856;51.460;7.158;2023-02-15T03:16:42;10.13;;;8.70;;
13568;SDS011;6856;51.460;7.158;2023-02-15T03:19:22;14.23;;;10.00;;
13568;SDS011;6856;51.460;7.158;2023-02-15T03:22:03;12.03;;;9.23;;
13568;SDS011;6856;51.460;7.158;2023-02-15T03:24:43;11.90;;;8.83;;
13568;SDS011;6856;51.460;7.158;2023-02-15T03:27:24;15.23;;;10.77;;
13568;SDS011;6856;51.460;7.158;2023-02-15T03:30:07;15.10;;;10.70;;
13568;SDS011;6856;51.460;7.158;2023-02-15T03:32:45;13.30;;;10.40;;
13568;SDS011;6856;51.460;7.158;2023-02-15T03:35:24;12.37;;;9.80;;
13568;SDS011;6856;51.460;7.158;2023-02-15T03:38:10;12.47;;;9.77;;
13568;SDS011;6856;51.460;7.158;2023-02-15T03:40:53;13.33;;;10.37;;
13568;SDS011;6856;51.460;7.158;2023-02-15T03:43:47;13.60;;;10.60;;
13568;SDS011;6856;51.460;7.158;2023-02-15T03:46:27;12.33;;;9.80;;
13568;SDS011;6856;51.460;7.158;2023-02-15T03:49:07;13.40;;;10.30;;
13568;SDS011;6856;51.460;7.158;2023-02-15T03:51:47;14.40;;;10.53;;
13568;SDS011;6856;51.460;7.158;2023-02-15T03:54:30;11.97;;;10.00;;
13568;SDS011;6856;51.460;7.158;2023-02-15T03:57:18;14.23;;;10.37;;
13568;SDS011;6856;51.460;7.158;2023-02-15T04:00:14;10.97;;;9.17;;
13568;SDS011;6856;51.460;7.158;2023-02-15T04:03:16;12.03;;;10.00;;
13568;SDS011;6856;51.460;7.158;2023-02-15T04:06:03;15.40;;;11.07;;
13568;SDS011;6856;51.460;7.158;2023-02-15T04:08:37;15.23;;;11.47;;
13568;SDS011;6856;51.460;7.158;2023-02-15T04:11:33;12.47;;;9.27;;
13568;SDS011;6856;51.460;7.158;2023-02-15T04:14:07;13.47;;;11.40;;
13568;SDS011;6856;51.460;7.158;2023-02-15T04:16:54;12.17;;;10.20;;
13568;SDS011;6856;51.460;7.158;2023-02-15T04:19:29;11.70;;;9.10;;
13568;SDS011;6856;51.460;7.158;2023-02-15T04:22:20;13.37;;;11.07;;
13568;SDS011;6856;51.460;7.158;2023-02-15T04:25:12;15.27;;;11.40;;
13568;SDS011;6856;51.460;7.158;2023-02-15T04:27:49;14.40;;;11.50;;
13568;SDS011;6856;51.460;7.158;2023-02-15T04:30:25;13.80;;;10.63;;
13568;SDS011;6856;51.460;7.158;2023-02-15T04:32:59;12.63;;;10.33;;
13568;SDS011;6856;51.460;7.158;2023-02-15T04:35:33;13.80;;;11.27;;
13568;SDS011;6856;51.460;7.158;2023-02-15T04:38:07;13.70;;;11.30;;
13568;SDS011;6856;51.460;7.158;2023-02-15T04:40:41;14.53;;;11.37;;
13568;SDS011;6856;51.460;7.158;2023-02-15T04:43:16;14.07;;;10.93;;
13568;SDS011;6856;51.460;7.158;2023-02-15T04:45:51;14.07;;;11.43;;
13568;SDS011;6856;51.460;7.158;2023-02-15T04:48:25;12.33;;;9.83;;
13568;SDS011;6856;51.460;7.158;2023-02-15T04:50:58;14.23;;;10.20;;
13568;SDS011;6856;51.460;7.158;2023-02-15T04:53:32;14.43;;;11.37;;
13568;SDS011;6856;51.460;7.158;2023-02-15T04:56:06;14.97;;;11.33;;
13568;SDS011;6856;51.460;7.158;2023-02-15T04:58:42;14.20;;;11.13;;
13568;SDS011;6856;51.460;7.158;2023-02-15T05:01:15;13.33;;;11.50;;
13568;SDS011;6856;51.460;7.158;2023-02-15T05:03:50;13.73;;;10.97;;
13568;SDS011;6856;51.460;7.158;2023-02-15T05:06:25;14.03;;;11.70;;
13568;SDS011;6856;51.460;7.158;2023-02-15T05:08:59;14.23;;;11.17;;
13568;SDS011;6856;51.460;7.158;2023-02-15T05:11:33;14.83;;;10.93;;
13568;SDS011;6856;51.460;7.158;2023-02-15T05:14:09;13.80;;;11.30;;
13568;SDS011;6856;51.460;7.158;2023-02-15T05:16:43;14.80;;;11.27;;
13568;SDS011;6856;51.460;7.158;2023-02-15T05:19:17;14.77;;;11.37;;
13568;SDS011;6856;51.460;7.158;2023-02-15T05:21:50;14.60;;;11.60;;
13568;SDS011;6856;51.460;7.158;2023-02-15T05:24:24;13.37;;;10.50;;
13568;SDS011;6856;51.460;7.158;2023-02-15T05:27:15;13.53;;;11.50;;
13568;SDS011;6856;51.460;7.158;2023-02-15T05:30:11;13.43;;;11.53;;
13568;SDS011;6856;51.460;7.158;2023-02-15T05:32:47;14.70;;;10.77;;
13568;SDS011;6856;51.460;7.158;2023-02-15T05:35:21;14.90;;;11.57;;
13568;SDS011;6856;51.460;7.158;2023-02-15T05:37:55;14.23;;;11.53;;
13568;SDS011;6856;51.460;7.158;2023-02-15T05:40:30;15.30;;;11.83;;
13568;SDS011;6856;51.460;7.158;2023-02-15T05:43:04;15.40;;;12.13;;
13568;SDS011;6856;51.460;7.158;2023-02-15T05:45:39;15.17;;;11.37;;
13568;SDS011;6856;51.460;7.158;2023-02-15T05:48:12;15.20;;;12.50;;
13568;SDS011;6856;51.460;7.158;2023-02-15T05:50:55;14.10;;;10.63;;
13568;SDS011;6856;51.460;7.158;2023-02-15T05:53:32;13.07;;;9.90;;
13568;SDS011;6856;51.460;7.158;2023-02-15T05:56:09;15.20;;;11.07;;
13568;SDS011;6856;51.460;7.158;2023-02-15T05:58:44;13.90;;;10.73;;
13568;SDS011;6856;51.460;7.158;2023-02-15T06:01:21;13.77;;;11.37;;
13568;SDS011;6856;51.460;7.158;2023-02-15T06:03:56;15.10;;;11.77;;
13568;SDS011;6856;51.460;7.158;2023-02-15T06:06:30;16.03;;;12.30;;
13568;SDS011;6856;51.460;7.158;2023-02-15T06:09:06;15.63;;;11.83;;
13568;SDS011;6856;51.460;7.158;2023-02-15T06:11:39;15.43;;;12.50;;
13568;SDS011;6856;51.460;7.158;2023-02-15T06:14:13;16.23;;;12.13;;
13568;SDS011;6856;51.460;7.158;2023-02-15T06:16:49;15.13;;;11.47;;
13568;SDS011;6856;51.460;7.158;2023-02-15T06:19:23;14.47;;;12.27;;
13568;SDS011;6856;51.460;7.158;2023-02-15T06:21:57;14.53;;;12.20;;
13568;SDS011;6856;51.460;7.158;2023-02-15T06:24:31;16.53;;;12.20;;
13568;SDS011;6856;51.460;7.158;2023-02-15T06:27:05;14.00;;;11.37;;
13568;SDS011;6856;51.460;7.158;2023-02-15T06:29:39;16.40;;;12.27;;
13568;SDS011;6856;51.460;7.158;2023-02-15T06:32:15;15.03;;;11.73;;
13568;SDS011;6856;51.460;7.158;2023-02-15T06:34:49;15.27;;;12.50;;
13568;SDS011;6856;51.460;7.158;2023-02-15T06:37:23;16.37;;;12.83;;
13568;SDS011;6856;51.460;7.158;2023-02-15T06:39:58;15.83;;;12.57;;
13568;SDS011;6856;51.460;7.158;2023-02-15T06:42:34;15.13;;;11.47;;
13568;SDS011;6856;51.460;7.158;2023-02-15T06:45:08;14.63;;;11.47;;
13568;SDS011;6856;51.460;7.158;2023-02-15T06:47:45;15.47;;;12.27;;
13568;SDS011;6856;51.460;7.158;2023-02-15T06:50:19;15.50;;;12.57;;
13568;SDS011;6856;51.460;7.158;2023-02-15T06:52:55;16.40;;;12.93;;
13568;SDS011;6856;51.460;7.158;2023-02-15T06:55:29;18.60;;;13.03;;
13568;SDS011;6856;51.460;7.158;2023-02-15T06:58:04;16.37;;;12.10;;
13568;SDS011;6856;51.460;7.158;2023-02-15T07:00:41;17.13;;;12.53;;
13568;SDS011;6856;51.460;7.158;2023-02-15T07:03:17;16.50;;;13.43;;
13568;SDS011;6856;51.460;7.158;2023-02-15T07:05:54;15.17;;;12.57;;
13568;SDS011;6856;51.460;7.158;2023-02-15T07:08:29;15.97;;;12.67;;
13568;SDS011;6856;51.460;7.158;2023-02-15T07:11:04;15.03;;;12.47;;
13568;SDS011;6856;51.460;7.158;2023-02-15T07:13:57;16.37;;;12.47;;
13568;SDS011;6856;51.460;7.158;2023-02-15T07:16:31;16.90;;;13.70;;
13568;SDS011;6856;51.460;7.158;2023-02-15T07:19:07;15.63;;;13.63;;
13568;SDS011;6856;51.460;7.158;2023-02-15T07:21:41;18.07;;;14.33;;
13568;SDS011;6856;51.460;7.158;2023-02-15T07:24:17;16.60;;;13.30;;
13568;SDS011;6856;51.460;7.158;2023-02-15T07:26:51;17.60;;;14.57;;
13568;SDS011;6856;51.460;7.158;2023-02-15T07:29:25;20.10;;;15.57;;
13568;SDS011;6856;51.460;7.158;2023-02-15T07:31:59;19.07;;;14.80;;
13568;SDS011;6856;51.460;7.158;2023-02-15T07:34:34;19.53;;;14.90;;
13568;SDS011;6856;51.460;7.158;2023-02-15T07:37:09;18.20;;;14.97;;
13568;SDS011;6856;51.460;7.158;2023-02-15T07:39:43;19.33;;;15.70;;
13568;SDS011;6856;51.460;7.158;2023-02-15T07:42:17;18.17;;;15.33;;
13568;SDS011;6856;51.460;7.158;2023-02-15T07:44:51;19.23;;;15.50;;
13568;SDS011;6856;51.460;7.158;2023-02-15T07:47:27;20.97;;;16.03;;
13568;SDS011;6856;51.460;7.158;2023-02-15T07:50:03;21.03;;;16.07;;
13568;SDS011;6856;51.460;7.158;2023-02-15T07:52:38;19.83;;;16.13;;
13568;SDS011;6856;51.460;7.158;2023-02-15T07:55:12;24.47;;;18.30;;
13568;SDS011;6856;51.460;7.158;2023-02-15T07:57:48;21.63;;;18.30;;
13568;SDS011;6856;51.460;7.158;2023-02-15T08:00:25;20.70;;;17.03;;
13568;SDS011;6856;51.460;7.158;2023-02-15T08:03:02;21.40;;;18.30;;
13568;SDS011;6856;51.460;7.158;2023-02-15T08:05:50;20.83;;;17.87;;
13568;SDS011;6856;51.460;7.158;2023-02-15T08:08:24;22.30;;;18.20;;
13568;SDS011;6856;51.460;7.158;2023-02-15T08:11:15;21.67;;;17.50;;
13568;SDS011;6856;51.460;7.158;2023-02-15T08:14:05;19.20;;;16.10;;
13568;SDS011;6856;51.460;7.158;2023-02-15T08:16:41;21.80;;;16.90;;
13568;SDS011;6856;51.460;7.158;2023-02-15T08:19:19;19.80;;;16.40;;
13568;SDS011;6856;51.460;7.158;2023-02-15T08:21:57;17.93;;;15.67;;
13568;SDS011;6856;51.460;7.158;2023-02-15T08:24:34;20.20;;;16.03;;
13568;SDS011;6856;51.460;7.158;2023-02-15T08:27:10;19.60;;;14.97;;
13568;SDS011;6856;51.460;7.158;2023-02-15T08:29:44;17.93;;;14.57;;
13568;SDS011;6856;51.460;7.158;2023-02-15T08:32:18;17.27;;;13.97;;
13568;SDS011;6856;51.460;7.158;2023-02-15T08:34:52;17.20;;;14.17;;
13568;SDS011;6856;51.460;7.158;2023-02-15T08:37:28;18.70;;;13.63;;
13568;SDS011;6856;51.460;7.158;2023-02-15T08:40:02;20.33;;;14.03;;
13568;SDS011;6856;51.460;7.158;2023-02-15T08:42:36;18.20;;;14.03;;
13568;SDS011;6856;51.460;7.158;2023-02-15T08:45:10;19.50;;;14.80;;
13568;SDS011;6856;51.460;7.158;2023-02-15T08:47:44;16.77;;;13.50;;
13568;SDS011;6856;51.460;7.158;2023-02-15T08:50:18;16.40;;;12.87;;
13568;SDS011;6856;51.460;7.158;2023-02-15T08:52:53;17.93;;;14.00;;
13568;SDS011;6856;51.460;7.158;2023-02-15T08:55:28;16.57;;;13.03;;
13568;SDS011;6856;51.460;7.158;2023-02-15T08:58:02;16.60;;;12.53;;
13568;SDS011;6856;51.460;7.158;2023-02-15T09:00:36;16.80;;;13.20;;
13568;SDS011;6856;51.460;7.158;2023-02-15T09:03:10;18.63;;;13.73;;
13568;SDS011;6856;51.460;7.158;2023-02-15T09:05:44;17.13;;;13.47;;
13568;SDS011;6856;51.460;7.158;2023-02-15T09:08:19;15.00;;;11.90;;
13568;SDS011;6856;51.460;7.158;2023-02-15T09:10:53;17.03;;;12.43;;
13568;SDS011;6856;51.460;7.158;2023-02-15T09:13:36;16.90;;;12.50;;
13568;SDS011;6856;51.460;7.158;2023-02-15T09:16:11;16.37;;;12.70;;
13568;SDS011;6856;51.460;7.158;2023-02-15T09:18:48;15.80;;;12.40;;
13568;SDS011;6856;51.460;7.158;2023-02-15T09:21:23;15.23;;;11.80;;
13568;SDS011;6856;51.460;7.158;2023-02-15T09:24:00;16.77;;;12.30;;
13568;SDS011;6856;51.460;7.158;2023-02-15T09:26:38;15.23;;;11.73;;
13568;SDS011;6856;51.460;7.158;2023-02-15T09:29:14;14.67;;;11.90;;
13568;SDS011;6856;51.460;7.158;2023-02-15T09:31:50;16.57;;;12.07;;
13568;SDS011;6856;51.460;7.158;2023-02-15T09:34:25;14.93;;;10.80;;
13568;SDS011;6856;51.460;7.158;2023-02-15T09:36:58;15.67;;;11.93;;
13568;SDS011;6856;51.460;7.158;2023-02-15T09:39:36;15.90;;;11.53;;
13568;SDS011;6856;51.460;7.158;2023-02-15T09:42:17;16.30;;;11.63;;
13568;SDS011;6856;51.460;7.158;2023-02-15T09:45:36;13.03;;;10.37;;
13568;SDS011;6856;51.460;7.158;2023-02-15T09:48:38;13.87;;;10.57;;
13568;SDS011;6856;51.460;7.158;2023-02-15T09:51:26;15.23;;;11.37;;
13568;SDS011;6856;51.460;7.158;2023-02-15T09:54:24;13.37;;;10.20;;
13568;SDS011;6856;51.460;7.158;2023-02-15T09:57:22;14.83;;;10.37;;
13568;SDS011;6856;51.460;7.158;2023-02-15T10:00:07;14.03;;;11.27;;
13568;SDS011;6856;51.460;7.158;2023-02-15T10:03:19;13.37;;;10.20;;
13568;SDS011;6856;51.460;7.158;2023-02-15T10:06:29;13.80;;;9.97;;
13568;SDS011;6856;51.460;7.158;2023-02-15T10:09:26;13.23;;;10.27;;
13568;SDS011;6856;51.460;7.158;2023-02-15T10:12:35;13.30;;;10.20;;
13568;SDS011;6856;51.460;7.158;2023-02-15T10:15:34;15.07;;;10.53;;
13568;SDS011;6856;51.460;7.158;2023-02-15T10:18:49;13.50;;;10.33;;
13568;SDS011;6856;51.460;7.158;2023-02-15T10:21:37;12.77;;;9.60;;
13568;SDS011;6856;51.460;7.158;2023-02-15T10:24:30;12.53;;;9.40;;
13568;SDS011;6856;51.460;7.158;2023-02-15T10:27:26;13.40;;;10.10;;
13568;SDS011;6856;51.460;7.158;2023-02-15T10:30:10;13.60;;;9.27;;
13568;SDS011;6856;51.460;7.158;2023-02-15T10:32:56;12.70;;;9.17;;
13568;SDS011;6856;51.460;7.158;2023-02-15T10:35:35;12.27;;;9.40;;
13568;SDS011;6856;51.460;7.158;2023-02-15T10:38:25;12.77;;;8.53;;
13568;SDS011;6856;51.460;7.158;2023-02-15T10:41:15;14.47;;;9.87;;
13568;SDS011;6856;51.460;7.158;2023-02-15T10:44:17;12.67;;;8.90;;
13568;SDS011;6856;51.460;7.158;2023-02-15T10:47:22;12.10;;;8.70;;
13568;SDS011;6856;51.460;7.158;2023-02-15T10:50:17;14.60;;;8.80;;
13568;SDS011;6856;51.460;7.158;2023-02-15T10:53:07;12.50;;;8.60;;
13568;SDS011;6856;51.460;7.158;2023-02-15T10:56:00;12.20;;;8.50;;
13568;SDS011;6856;51.460;7.158;2023-02-15T10:58:49;11.43;;;8.30;;
13568;SDS011;6856;51.460;7.158;2023-02-15T11:01:43;12.80;;;7.23;;
13568;SDS011;6856;51.460;7.158;2023-02-15T11:04:37;10.50;;;7.53;;
13568;SDS011;6856;51.460;7.158;2023-02-15T11:07:32;10.93;;;6.83;;
13568;SDS011;6856;51.460;7.158;2023-02-15T11:10:14;10.80;;;6.90;;
13568;SDS011;6856;51.460;7.158;2023-02-15T11:13:02;10.60;;;7.00;;
13568;SDS011;6856;51.460;7.158;2023-02-15T11:15:44;10.80;;;6.83;;
13568;SDS011;6856;51.460;7.158;2023-02-15T11:18:27;10.03;;;6.73;;
13568;SDS011;6856;51.460;7.158;2023-02-15T11:21:08;9.13;;;6.13;;
13568;SDS011;6856;51.460;7.158;2023-02-15T11:23:51;9.37;;;6.57;;
13568;SDS011;6856;51.460;7.158;2023-02-15T11:26:28;9.13;;;6.37;;
13568;SDS011;6856;51.460;7.158;2023-02-15T11:29:07;10.10;;;6.13;;
13568;SDS011;6856;51.460;7.158;2023-02-15T11:31:53;9.37;;;5.93;;
13568;SDS011;6856;51.460;7.158;2023-02-15T11:34:33;8.53;;;5.93;;
13568;SDS011;6856;51.460;7.158;2023-02-15T11:37:18;9.57;;;5.73;;
13568;SDS011;6856;51.460;7.158;2023-02-15T11:40:02;8.37;;;5.40;;
13568;SDS011;6856;51.460;7.158;2023-02-15T11:42:53;8.37;;;5.57;;
13568;SDS011;6856;51.460;7.158;2023-02-15T11:45:32;9.63;;;5.93;;
13568;SDS011;6856;51.460;7.158;2023-02-15T11:48:11;9.03;;;5.93;;
13568;SDS011;6856;51.460;7.158;2023-02-15T11:50:50;7.83;;;5.67;;
13568;SDS011;6856;51.460;7.158;2023-02-15T11:53:31;9.07;;;5.70;;
13568;SDS011;6856;51.460;7.158;2023-02-15T11:56:12;8.53;;;5.93;;
13568;SDS011;6856;51.460;7.158;2023-02-15T11:58:51;9.43;;;5.70;;
13568;SDS011;6856;51.460;7.158;2023-02-15T12:01:31;8.93;;;5.90;;
13568;SDS011;6856;51.460;7.158;2023-02-15T12:04:12;8.83;;;6.17;;
13568;SDS011;6856;51.460;7.158;2023-02-15T12:06:59;8.30;;;5.30;;
13568;SDS011;6856;51.460;7.158;2023-02-15T12:09:40;11.00;;;6.13;;
13568;SDS011;6856;51.460;7.158;2023-02-15T12:12:24;8.50;;;5.83;;
13568;SDS011;6856;51.460;7.158;2023-02-15T12:15:00;8.60;;;5.73;;
13568;SDS011;6856;51.460;7.158;2023-02-15T12:17:38;11.20;;;5.60;;
13568;SDS011;6856;51.460;7.158;2023-02-15T12:20:21;8.07;;;5.70;;
13568;SDS011;6856;51.460;7.158;2023-02-15T12:23:04;10.00;;;6.17;;
13568;SDS011;6856;51.460;7.158;2023-02-15T12:25:49;8.60;;;5.73;;
13568;SDS011;6856;51.460;7.158;2023-02-15T12:28:29;10.50;;;6.60;;
13568;SDS011;6856;51.460;7.158;2023-02-15T12:31:18;9.00;;;6.30;;
13568;SDS011;6856;51.460;7.158;2023-02-15T12:33:56;8.90;;;5.97;;
13568;SDS011;6856;51.460;7.158;2023-02-15T12:36:39;8.33;;;6.03;;
13568;SDS011;6856;51.460;7.158;2023-02-15T12:39:21;8.07;;;5.67;;
13568;SDS011;6856;51.460;7.158;2023-02-15T12:42:00;9.93;;;6.00;;
13568;SDS011;6856;51.460;7.158;2023-02-15T12:44:37;11.77;;;7.07;;
13568;SDS011;6856;51.460;7.158;2023-02-15T12:47:18;9.43;;;6.30;;
13568;SDS011;6856;51.460;7.158;2023-02-15T12:53:06;9.57;;;6.10;;
13568;SDS011;6856;51.460;7.158;2023-02-15T12:55:51;11.07;;;6.50;;
13568;SDS011;6856;51.460;7.158;2023-02-15T12:58:29;10.23;;;6.50;;
13568;SDS011;6856;51.460;7.158;2023-02-15T13:01:12;9.90;;;6.27;;
13568;SDS011;6856;51.460;7.158;2023-02-15T13:03:54;7.93;;;6.03;;
13568;SDS011;6856;51.460;7.158;2023-02-15T13:06:32;9.97;;;6.20;;
13568;SDS011;6856;51.460;7.158;2023-02-15T13:09:13;10.77;;;6.47;;
13568;SDS011;6856;51.460;7.158;2023-02-15T13:11:54;10.60;;;6.87;;
13568;SDS011;6856;51.460;7.158;2023-02-15T13:14:30;9.67;;;6.30;;
13568;SDS011;6856;51.460;7.158;2023-02-15T13:17:05;9.93;;;6.53;;
13568;SDS011;6856;51.460;7.158;2023-02-15T13:19:40;10.90;;;7.17;;
13568;SDS011;6856;51.460;7.158;2023-02-15T13:22:18;11.33;;;6.57;;
13568;SDS011;6856;51.460;7.158;2023-02-15T13:24:57;9.10;;;5.53;;
13568;SDS011;6856;51.460;7.158;2023-02-15T13:27:39;10.17;;;5.87;;
13568;SDS011;6856;51.460;7.158;2023-02-15T13:30:19;9.67;;;6.40;;
13568;SDS011;6856;51.460;7.158;2023-02-15T13:32:59;10.53;;;6.50;;
13568;SDS011;6856;51.460;7.158;2023-02-15T13:35:39;10.73;;;6.97;;
13568;SDS011;6856;51.460;7.158;2023-02-15T13:38:30;10.43;;;6.20;;
13568;SDS011;6856;51.460;7.158;2023-02-15T14:00:57;10.57;;;5.63;;
13568;SDS011;6856;51.460;7.158;2023-02-15T14:03:56;9.57;;;6.10;;
13568;SDS011;6856;51.460;7.158;2023-02-15T14:07:07;10.03;;;6.57;;
13568;SDS011;6856;51.460;7.158;2023-02-15T14:10:10;9.40;;;6.13;;
13568;SDS011;6856;51.460;7.158;2023-02-15T14:16:40;10.80;;;6.80;;
13568;SDS011;6856;51.460;7.158;2023-02-15T14:19:37;8.40;;;5.80;;
13568;SDS011;6856;51.460;7.158;2023-02-15T14:22:23;10.40;;;6.23;;
13568;SDS011;6856;51.460;7.158;2023-02-15T14:25:16;9.67;;;5.60;;
13568;SDS011;6856;51.460;7.158;2023-02-15T14:28:03;10.47;;;6.47;;
13568;SDS011;6856;51.460;7.158;2023-02-15T14:30:49;9.97;;;6.57;;
13568;SDS011;6856;51.460;7.158;2023-02-15T14:33:29;11.90;;;6.67;;
13568;SDS011;6856;51.460;7.158;2023-02-15T14:36:10;10.97;;;6.53;;
13568;SDS011;6856;51.460;7.158;2023-02-15T14:38:56;9.63;;;6.37;;
13568;SDS011;6856;51.460;7.158;2023-02-15T14:42:04;9.63;;;5.77;;
13568;SDS011;6856;51.460;7.158;2023-02-15T14:44:53;11.57;;;6.67;;
13568;SDS011;6856;51.460;7.158;2023-02-15T14:47:38;11.00;;;5.87;;
13568;SDS011;6856;51.460;7.158;2023-02-15T14:50:40;11.00;;;6.10;;
13568;SDS011;6856;51.460;7.158;2023-02-15T14:53:33;9.97;;;6.20;;
13568;SDS011;6856;51.460;7.158;2023-02-15T14:56:17;10.30;;;6.07;;
13568;SDS011;6856;51.460;7.158;2023-02-15T14:59:00;10.40;;;6.20;;
13568;SDS011;6856;51.460;7.158;2023-02-15T15:01:57;8.90;;;5.60;;
13568;SDS011;6856;51.460;7.158;2023-02-15T15:04:46;10.67;;;6.77;;
13568;SDS011;6856;51.460;7.158;2023-02-15T15:07:37;12.73;;;6.83;;
13568;SDS011;6856;51.460;7.158;2023-02-15T15:10:39;9.17;;;5.80;;
13568;SDS011;6856;51.460;7.158;2023-02-15T15:16:26;9.30;;;5.40;;
13568;SDS011;6856;51.460;7.158;2023-02-15T15:22:45;8.33;;;5.57;;
13568;SDS011;6856;51.460;7.158;2023-02-15T15:31:38;10.97;;;6.57;;
13568;SDS011;6856;51.460;7.158;2023-02-15T15:37:59;9.17;;;5.83;;
13568;SDS011;6856;51.460;7.158;2023-02-15T15:41:08;9.90;;;5.97;;
13568;SDS011;6856;51.460;7.158;2023-02-15T15:47:40;9.87;;;6.30;;
13568;SDS011;6856;51.460;7.158;2023-02-15T15:50:58;9.23;;;5.73;;
13568;SDS011;6856;51.460;7.158;2023-02-15T15:53:38;8.80;;;6.10;;
13568;SDS011;6856;51.460;7.158;2023-02-15T15:56:20;10.07;;;6.27;;
13568;SDS011;6856;51.460;7.158;2023-02-15T15:59:00;7.53;;;5.23;;
13568;SDS011;6856;51.460;7.158;2023-02-15T16:01:43;10.67;;;6.10;;
13568;SDS011;6856;51.460;7.158;2023-02-15T16:04:25;10.00;;;6.13;;
13568;SDS011;6856;51.460;7.158;2023-02-15T16:07:18;11.20;;;6.53;;
13568;SDS011;6856;51.460;7.158;2023-02-15T16:10:16;11.77;;;6.70;;
13568;SDS011;6856;51.460;7.158;2023-02-15T16:12:55;12.90;;;6.43;;
13568;SDS011;6856;51.460;7.158;2023-02-15T16:15:31;9.33;;;6.00;;
13568;SDS011;6856;51.460;7.158;2023-02-15T16:18:14;9.33;;;5.93;;
13568;SDS011;6856;51.460;7.158;2023-02-15T16:20:55;9.73;;;6.13;;
13568;SDS011;6856;51.460;7.158;2023-02-15T16:26:48;10.37;;;6.00;;
13568;SDS011;6856;51.460;7.158;2023-02-15T16:33:11;10.47;;;6.53;;
13568;SDS011;6856;51.460;7.158;2023-02-15T16:35:53;11.83;;;6.77;;
13568;SDS011;6856;51.460;7.158;2023-02-15T16:38:38;11.63;;;6.40;;
13568;SDS011;6856;51.460;7.158;2023-02-15T16:41:43;11.63;;;6.67;;
13568;SDS011;6856;51.460;7.158;2023-02-15T16:44:22;11.20;;;7.43;;
13568;SDS011;6856;51.460;7.158;2023-02-15T16:47:04;9.97;;;6.53;;
13568;SDS011;6856;51.460;7.158;2023-02-15T16:49:50;11.43;;;6.90;;
13568;SDS011;6856;51.460;7.158;2023-02-15T16:52:33;8.47;;;6.17;;
13568;SDS011;6856;51.460;7.158;2023-02-15T16:55:18;9.23;;;6.33;;
13568;SDS011;6856;51.460;7.158;2023-02-15T16:57:57;10.10;;;6.53;;
13568;SDS011;6856;51.460;7.158;2023-02-15T17:00:38;11.90;;;6.57;;
13568;SDS011;6856;51.460;7.158;2023-02-15T17:03:20;9.10;;;6.27;;
13568;SDS011;6856;51.460;7.158;2023-02-15T17:06:01;12.07;;;7.63;;
13568;SDS011;6856;51.460;7.158;2023-02-15T17:08:56;11.10;;;6.87;;
13568;SDS011;6856;51.460;7.158;2023-02-15T17:11:47;10.63;;;6.40;;